createdAt,value
2019-03-08T00:02:24.864Z,3.30
2019-03-08T00:04:55.844Z,3.37
2019-03-08T00:07:26.768Z,3.00
2019-03-08T00:09:59.813Z,3.22
2019-03-08T00:12:30.731Z,2.83
2019-03-08T00:15:01.252Z,3.52
2019-03-08T00:17:32.036Z,3.33
2019-03-08T00:20:02.646Z,3.12
2019-03-08T00:22:33.182Z,3.20
2019-03-08T00:25:03.886Z,3.52
2019-03-08T00:27:34.411Z,3.45
2019-03-08T00:30:05.136Z,2.90
2019-03-08T00:32:37.672Z,3.25
2019-03-08T00:35:09.042Z,3.33
2019-03-08T00:37:40.349Z,3.15
2019-03-08T00:40:11.326Z,3.30
2019-03-08T00:42:41.888Z,3.40
2019-03-08T00:45:12.640Z,3.20
2019-03-08T00:47:43.667Z,2.80
2019-03-08T00:50:14.313Z,3.20
2019-03-08T00:52:45.617Z,3.47
2019-03-08T00:55:17.042Z,3.30
2019-03-08T00:57:47.929Z,3.52
2019-03-08T01:00:20.562Z,3.33
2019-03-08T01:02:52.255Z,3.00
2019-03-08T01:05:24.566Z,3.37
2019-03-08T01:07:55.647Z,3.37
2019-03-08T01:10:27.762Z,3.67
2019-03-08T01:12:58.997Z,3.55
2019-03-08T01:15:32.072Z,2.90
2019-03-08T01:18:05.403Z,3.02
2019-03-08T01:20:36.334Z,3.20
2019-03-08T01:23:07.174Z,3.20
2019-03-08T01:25:40.945Z,3.05
2019-03-08T01:28:13.657Z,3.37
2019-03-08T01:30:45.184Z,3.08
2019-03-08T01:33:17.003Z,3.00
2019-03-08T01:35:47.761Z,2.90
2019-03-08T01:38:20.538Z,2.77
2019-03-08T01:40:51.372Z,2.90
2019-03-08T01:43:22.118Z,3.00
2019-03-08T01:45:53.111Z,2.62
2019-03-08T01:48:24.089Z,2.60
2019-03-08T01:50:55.137Z,2.45
2019-03-08T01:53:25.657Z,2.50
2019-03-08T01:55:56.215Z,2.57
2019-03-08T01:58:27.032Z,2.80
2019-03-08T02:00:57.635Z,2.60
2019-03-08T02:03:28.591Z,2.52
2019-03-08T02:06:00.891Z,2.52
2019-03-08T02:08:31.524Z,2.40
2019-03-08T02:11:02.879Z,2.50
2019-03-08T02:13:33.578Z,2.42
2019-03-08T02:16:04.489Z,2.27
2019-03-08T02:18:36.007Z,2.40
2019-03-08T02:21:07.625Z,2.50
2019-03-08T02:23:39.091Z,2.52
2019-03-08T02:26:11.339Z,2.23
2019-03-08T02:28:41.873Z,2.25
2019-03-08T02:31:12.406Z,2.50
2019-03-08T02:33:43.442Z,2.37
2019-03-08T02:36:14.525Z,2.80
2019-03-08T02:38:45.108Z,1.93
2019-03-08T02:41:16.220Z,2.20
2019-03-08T02:43:46.833Z,2.40
2019-03-08T02:46:18.700Z,2.83
2019-03-08T02:48:50.051Z,2.50
2019-03-08T02:51:22.584Z,2.30
2019-03-08T02:53:53.223Z,2.27
2019-03-08T02:56:25.011Z,2.50
2019-03-08T02:58:55.479Z,2.20
2019-03-08T03:01:26.040Z,2.20
2019-03-08T03:03:56.940Z,2.22
2019-03-08T03:06:31.944Z,2.70
2019-03-08T03:09:03.199Z,2.42
2019-03-08T03:11:36.184Z,2.20
2019-03-08T03:14:07.556Z,2.45
2019-03-08T03:16:38.249Z,2.35
2019-03-08T03:19:12.352Z,2.27
2019-03-08T03:21:42.891Z,2.67
2019-03-08T03:24:13.695Z,2.40
2019-03-08T03:26:44.336Z,2.92
2019-03-08T03:29:15.227Z,3.10
2019-03-08T03:31:46.692Z,2.47
2019-03-08T03:34:17.678Z,2.90
2019-03-08T03:36:50.159Z,2.70
2019-03-08T03:39:21.250Z,2.60
2019-03-08T03:41:52.822Z,2.37
2019-03-08T03:44:23.756Z,2.47
2019-03-08T03:46:54.969Z,2.50
2019-03-08T03:49:25.885Z,3.40
2019-03-08T03:51:56.382Z,3.35
2019-03-08T03:54:29.130Z,2.80
2019-03-08T03:56:59.790Z,2.47
2019-03-08T03:59:31.014Z,2.60
2019-03-08T04:02:02.011Z,3.90
2019-03-08T04:04:32.923Z,3.20
2019-03-08T04:07:03.486Z,3.87
2019-03-08T04:09:34.180Z,3.00
2019-03-08T04:12:05.096Z,4.25
2019-03-08T04:14:35.706Z,3.22
2019-03-08T04:17:06.631Z,5.85
2019-03-08T04:19:37.423Z,4.37
2019-03-08T04:22:08.754Z,3.67
2019-03-08T04:24:39.475Z,6.53
2019-03-08T04:27:13.862Z,6.20
2019-03-08T04:29:44.436Z,3.98
2019-03-08T04:32:15.119Z,4.17
2019-03-08T04:34:46.110Z,4.20
2019-03-08T04:37:20.335Z,4.30
2019-03-08T04:39:54.539Z,3.98
2019-03-08T04:42:25.107Z,4.72
2019-03-08T04:44:59.838Z,3.90
2019-03-08T04:47:33.545Z,3.73
2019-03-08T04:50:04.914Z,3.95
2019-03-08T04:52:35.672Z,3.60
2019-03-08T04:55:07.961Z,3.98
2019-03-08T04:57:38.955Z,5.67
2019-03-08T05:00:14.564Z,4.62
2019-03-08T05:02:45.534Z,4.47
2019-03-08T05:05:16.077Z,3.80
2019-03-08T05:07:49.428Z,5.40
2019-03-08T05:10:20.338Z,3.98
2019-03-08T05:12:51.240Z,4.17
2019-03-08T05:15:21.868Z,4.05
2019-03-08T05:17:55.249Z,4.33
2019-03-08T05:20:28.573Z,3.80
2019-03-08T05:22:59.333Z,4.20
2019-03-08T05:25:34.176Z,3.62
2019-03-08T05:28:05.058Z,2.45
2019-03-08T05:30:37.764Z,3.40
2019-03-08T05:33:08.457Z,2.87
2019-03-08T05:35:41.632Z,5.07
2019-03-08T05:38:16.267Z,3.50
2019-03-08T05:40:50.490Z,3.35
2019-03-08T05:43:21.094Z,2.80
2019-03-08T05:45:51.951Z,3.70
2019-03-08T05:48:23.395Z,3.90
2019-03-08T05:50:54.132Z,6.30
2019-03-08T05:53:25.061Z,3.77
2019-03-08T05:55:55.859Z,4.67
2019-03-08T05:58:26.861Z,4.90
2019-03-08T06:00:57.405Z,4.17
2019-03-08T06:03:29.594Z,4.10
2019-03-08T06:06:04.434Z,7.20
2019-03-08T06:08:35.459Z,5.33
2019-03-08T06:11:11.449Z,4.85
2019-03-08T06:13:42.423Z,4.35
2019-03-08T06:16:13.052Z,3.60
2019-03-08T06:18:43.734Z,3.72
2019-03-08T06:21:16.438Z,3.40
2019-03-08T06:23:47.076Z,3.10
2019-03-08T06:26:17.735Z,3.20
2019-03-08T06:28:48.345Z,2.77
2019-03-08T06:31:21.842Z,3.30
2019-03-08T06:33:57.396Z,3.00
2019-03-08T06:36:28.129Z,4.20
2019-03-08T06:38:59.534Z,4.80
2019-03-08T06:41:30.108Z,4.10
2019-03-08T06:44:05.769Z,3.45
2019-03-08T06:46:36.431Z,3.17
2019-03-08T06:49:07.008Z,3.12
2019-03-08T06:51:37.747Z,3.62
2019-03-08T06:54:08.384Z,2.98
2019-03-08T06:56:39.357Z,3.30
2019-03-08T06:59:20.155Z,2.90
2019-03-08T07:01:50.783Z,3.45
2019-03-08T07:04:21.435Z,2.60
2019-03-08T07:06:59.680Z,3.40
2019-03-08T07:09:30.755Z,2.90
2019-03-08T07:12:02.051Z,2.92
2019-03-08T07:14:32.969Z,2.72
2019-03-08T07:17:05.424Z,3.27
2019-03-08T07:20:07.788Z,3.20
2019-03-08T07:22:58.202Z,2.75
2019-03-08T07:25:51.401Z,2.90
2019-03-08T07:28:41.728Z,2.87
2019-03-08T07:31:27.784Z,2.50
2019-03-08T07:34:20.925Z,3.25
2019-03-08T07:37:11.184Z,3.20
2019-03-08T07:40:00.732Z,3.50
2019-03-08T07:42:48.742Z,4.42
2019-03-08T07:45:39.646Z,3.05
2019-03-08T07:48:19.298Z,3.70
2019-03-08T07:51:11.143Z,3.43
2019-03-08T07:54:06.774Z,3.12
2019-03-08T07:56:51.132Z,3.10
2019-03-08T07:59:54.162Z,2.83
2019-03-08T08:03:03.650Z,3.20
2019-03-08T08:05:37.810Z,3.90
2019-03-08T08:08:26.347Z,3.30
2019-03-08T08:11:22.876Z,2.70
2019-03-08T08:14:17.978Z,3.15
2019-03-08T08:17:04.951Z,2.87
2019-03-08T08:19:56.179Z,2.72
2019-03-08T08:22:49.843Z,2.98
2019-03-08T08:25:38.163Z,2.70
2019-03-08T08:28:28.201Z,3.15
2019-03-08T08:31:27.127Z,4.10
2019-03-08T08:34:19.581Z,3.12
2019-03-08T08:37:08.052Z,3.50
2019-03-08T08:39:48.981Z,3.57
2019-03-08T08:42:35.631Z,3.00
2019-03-08T08:45:32.358Z,3.62
2019-03-08T08:48:16.122Z,2.60
2019-03-08T08:50:52.082Z,2.70
2019-03-08T08:53:34.542Z,3.10
2019-03-08T08:56:29.071Z,2.98
2019-03-08T08:59:17.849Z,2.93
2019-03-08T09:02:16.941Z,2.50
2019-03-08T09:05:13.761Z,3.07
2019-03-08T09:08:06.851Z,2.52
2019-03-08T09:11:03.364Z,2.30
2019-03-08T09:13:56.365Z,2.30
2019-03-08T09:16:47.845Z,2.30
2019-03-08T09:19:39.181Z,2.30
2019-03-08T09:22:27.940Z,2.35
2019-03-08T09:25:22.212Z,2.30
2019-03-08T09:28:17.601Z,2.40
2019-03-08T09:31:02.529Z,2.50
2019-03-08T09:33:47.864Z,2.30
2019-03-08T09:36:38.478Z,2.50
2019-03-08T09:39:38.733Z,2.40
2019-03-08T09:42:28.556Z,2.40
2019-03-08T09:45:28.926Z,2.42
2019-03-08T09:48:28.470Z,2.40
2019-03-08T09:51:20.969Z,2.20
2019-03-08T09:54:18.274Z,2.33
2019-03-08T09:57:02.714Z,2.37
2019-03-08T09:59:58.339Z,2.42
2019-03-08T10:02:58.858Z,2.35
2019-03-08T10:05:48.612Z,2.40
2019-03-08T10:08:54.006Z,2.02
2019-03-08T10:11:30.715Z,2.10
2019-03-08T10:14:25.263Z,2.30
2019-03-08T10:17:20.839Z,2.10
2019-03-08T10:20:03.661Z,2.30
2019-03-08T10:23:03.447Z,2.30
2019-03-08T10:25:52.811Z,2.20
2019-03-08T10:28:39.897Z,2.53
2019-03-08T10:31:22.969Z,2.40
2019-03-08T10:34:12.568Z,2.37
2019-03-08T10:37:12.440Z,2.12
2019-03-08T10:40:05.877Z,2.10
2019-03-08T10:43:06.045Z,2.05
2019-03-08T10:45:56.306Z,2.05
2019-03-08T10:48:50.027Z,2.25
2019-03-08T10:51:47.438Z,2.20
2019-03-08T10:54:33.614Z,2.10
2019-03-08T10:57:28.722Z,2.15
2019-03-08T11:00:20.968Z,2.17
2019-03-08T11:03:04.796Z,2.43
2019-03-08T11:05:52.947Z,2.27
2019-03-08T11:08:45.193Z,2.00
2019-03-08T11:11:27.263Z,2.15
2019-03-08T11:14:21.780Z,2.00
2019-03-08T11:17:28.899Z,2.45
2019-03-08T11:20:21.591Z,2.10
2019-03-08T11:23:18.568Z,2.08
2019-03-08T11:26:03.500Z,2.20
2019-03-08T11:28:42.827Z,2.60
2019-03-08T11:31:24.566Z,2.22
2019-03-08T11:34:14.517Z,2.67
2019-03-08T11:37:04.134Z,2.25
2019-03-08T11:39:48.661Z,3.45
2019-03-08T11:42:27.703Z,2.20
2019-03-08T11:45:14.035Z,3.10
2019-03-08T11:48:02.715Z,1.90
2019-03-08T11:50:57.047Z,2.02
2019-03-08T11:53:55.944Z,2.35
2019-03-08T11:56:30.871Z,2.97
2019-03-08T11:59:26.598Z,2.10
2019-03-08T12:02:16.403Z,1.90
2019-03-08T12:04:56.978Z,1.90
2019-03-08T12:07:49.440Z,2.12
2019-03-08T12:10:31.060Z,2.00
2019-03-08T12:13:13.809Z,1.90
2019-03-08T12:16:03.940Z,1.70
2019-03-08T12:19:12.363Z,2.00
2019-03-08T12:22:08.076Z,1.62
2019-03-08T12:24:58.062Z,4.83
2019-03-08T12:27:50.851Z,2.30
2019-03-08T12:30:51.291Z,2.73
2019-03-08T12:33:50.129Z,2.15
2019-03-08T12:36:42.839Z,2.27
2019-03-08T12:39:38.771Z,2.00
2019-03-08T12:42:27.311Z,1.90
2019-03-08T12:45:34.899Z,2.25
2019-03-08T12:48:28.124Z,1.90
2019-03-08T12:51:45.397Z,1.80
2019-03-08T12:54:55.500Z,1.75
2019-03-08T12:57:59.716Z,2.20
2019-03-08T13:00:58.773Z,2.30
2019-03-08T13:03:52.587Z,2.20
2019-03-08T13:06:38.998Z,2.00
2019-03-08T13:09:37.471Z,2.00
2019-03-08T13:12:10.175Z,1.90
2019-03-08T13:14:43.132Z,2.10
2019-03-08T13:17:16.581Z,2.30
2019-03-08T13:19:47.347Z,2.25
2019-03-08T13:22:18.098Z,2.15
2019-03-08T13:24:48.844Z,2.30
2019-03-08T13:27:20.080Z,2.33
2019-03-08T13:29:51.055Z,2.25
2019-03-08T13:32:21.778Z,2.17
2019-03-08T13:34:52.371Z,2.40
2019-03-08T13:37:22.897Z,2.15
2019-03-08T13:39:53.572Z,2.00
2019-03-08T13:42:25.125Z,2.40
2019-03-08T13:44:55.743Z,2.30
2019-03-08T13:47:26.495Z,2.20
2019-03-08T13:49:57.835Z,2.05
2019-03-08T13:52:28.360Z,2.05
2019-03-08T13:54:58.915Z,2.20
2019-03-08T13:57:30.097Z,3.10
2019-03-08T14:00:01.032Z,2.10
2019-03-08T14:02:31.627Z,2.15
2019-03-08T14:05:03.073Z,2.33
2019-03-08T14:07:33.933Z,2.30
2019-03-08T14:10:05.156Z,2.30
2019-03-08T14:12:36.509Z,2.20
2019-03-08T14:15:12.236Z,2.30
2019-03-08T14:17:51.686Z,2.30
2019-03-08T14:20:23.874Z,1.93
2019-03-08T14:22:54.982Z,2.00
2019-03-08T14:25:25.545Z,1.80
2019-03-08T14:27:56.530Z,1.87
2019-03-08T14:30:32.092Z,2.00
2019-03-08T14:33:01.755Z,1.90
2019-03-08T14:35:34.422Z,2.00
2019-03-08T14:38:04.937Z,2.22
2019-03-08T14:40:53.292Z,2.00
2019-03-08T14:43:42.151Z,2.08
2019-03-08T14:46:22.145Z,2.05
2019-03-08T14:48:52.787Z,2.12
2019-03-08T14:51:23.398Z,2.20
2019-03-08T14:53:54.451Z,2.40
2019-03-08T14:56:25.051Z,2.33
2019-03-08T14:58:56.246Z,2.00
2019-03-08T15:01:27.001Z,2.30
2019-03-08T15:03:57.900Z,2.30
2019-03-08T15:06:29.594Z,2.47
2019-03-08T15:09:00.407Z,2.50
2019-03-08T15:11:32.982Z,2.80
2019-03-08T15:14:03.959Z,2.40
2019-03-08T15:16:35.397Z,2.33
2019-03-08T15:19:07.357Z,2.35
2019-03-08T15:21:48.073Z,2.45
2019-03-08T15:24:11.954Z,2.00
2019-03-08T15:26:42.725Z,2.30
2019-03-08T15:29:13.637Z,2.60
2019-03-08T15:31:45.007Z,2.45
2019-03-08T15:34:21.449Z,2.00
2019-03-08T15:36:48.830Z,2.50
2019-03-08T15:39:20.282Z,2.30
2019-03-08T15:41:58.593Z,2.45
2019-03-08T15:44:32.906Z,2.25
2019-03-08T15:47:04.676Z,2.27
2019-03-08T15:49:35.722Z,2.67
2019-03-08T15:52:06.476Z,2.25
2019-03-08T15:54:37.869Z,2.47
2019-03-08T15:57:08.483Z,2.22
2019-03-08T15:59:42.704Z,2.22
2019-03-08T16:02:13.368Z,2.00
2019-03-08T16:04:45.694Z,2.35
2019-03-08T16:07:19.053Z,2.30
2019-03-08T16:09:49.851Z,2.22
2019-03-08T16:12:20.747Z,2.20
2019-03-08T16:14:52.000Z,2.65
2019-03-08T16:17:23.311Z,2.70
2019-03-08T16:19:54.528Z,2.40
2019-03-08T16:22:28.560Z,2.97
2019-03-08T16:24:58.153Z,2.90
2019-03-08T16:27:29.719Z,2.70
2019-03-08T16:30:03.087Z,2.70
2019-03-08T16:33:01.175Z,2.45
2019-03-08T16:35:40.029Z,2.60
2019-03-08T16:38:16.893Z,2.13
2019-03-08T16:41:12.465Z,2.33
2019-03-08T16:43:59.369Z,2.40
2019-03-08T16:46:52.633Z,6.10
2019-03-08T16:49:39.919Z,2.22
2019-03-08T16:52:35.982Z,2.72
2019-03-08T16:55:21.828Z,2.55
2019-03-08T16:58:10.125Z,2.77
2019-03-08T17:01:07.480Z,7.00
2019-03-08T17:03:46.837Z,2.60
2019-03-08T17:06:29.333Z,2.95
2019-03-08T17:09:11.055Z,3.50
2019-03-08T17:11:58.745Z,3.25
2019-03-08T17:14:51.838Z,4.20
2019-03-08T17:17:54.874Z,3.45
2019-03-08T17:20:45.902Z,2.80
2019-03-08T17:23:36.456Z,3.40
2019-03-08T17:26:25.449Z,3.62
2019-03-08T17:29:17.857Z,4.22
2019-03-08T17:31:58.031Z,5.00
2019-03-08T17:34:58.311Z,3.80
2019-03-08T17:37:57.188Z,2.97
2019-03-08T17:40:41.683Z,2.90
2019-03-08T17:43:30.161Z,2.90
2019-03-08T17:46:19.389Z,4.08
2019-03-08T17:49:16.150Z,9.65
2019-03-08T17:52:04.228Z,3.77
2019-03-08T17:55:02.959Z,3.45
2019-03-08T17:58:03.784Z,2.90
2019-03-08T18:01:03.175Z,3.92
2019-03-08T18:04:00.849Z,4.30
2019-03-08T18:06:54.599Z,3.10
2019-03-08T18:09:50.367Z,3.58
2019-03-08T18:12:49.410Z,4.87
2019-03-08T18:16:01.570Z,2.90
2019-03-08T18:18:49.629Z,4.03
2019-03-08T18:21:38.227Z,5.60
2019-03-08T18:24:27.991Z,3.33
2019-03-08T18:27:25.387Z,2.85
2019-03-08T18:30:14.164Z,2.65
2019-03-08T18:32:53.097Z,8.20
2019-03-08T18:35:47.496Z,2.60
2019-03-08T18:38:41.868Z,3.93
2019-03-08T18:41:42.923Z,3.80
2019-03-08T18:44:22.971Z,3.00
2019-03-08T18:47:10.023Z,3.20
2019-03-08T18:50:08.864Z,3.45
2019-03-08T18:52:55.771Z,3.05
2019-03-08T18:55:41.912Z,3.92
2019-03-08T18:58:40.028Z,3.20
2019-03-08T19:01:32.318Z,3.58
2019-03-08T19:04:33.978Z,4.20
2019-03-08T19:07:22.648Z,3.10
2019-03-08T19:10:12.542Z,3.12
2019-03-08T19:13:11.420Z,3.40
2019-03-08T19:16:04.907Z,3.55
2019-03-08T19:18:53.042Z,4.20
2019-03-08T19:21:40.474Z,3.40
2019-03-08T19:24:48.407Z,5.05
2019-03-08T19:27:29.562Z,3.65
2019-03-08T19:30:22.318Z,3.98
2019-03-08T19:33:17.887Z,3.92
2019-03-08T19:36:11.212Z,4.17
2019-03-08T19:39:16.656Z,5.30
2019-03-08T19:42:02.726Z,4.87
2019-03-08T19:44:58.052Z,3.45
2019-03-08T19:47:57.597Z,3.70
2019-03-08T19:50:50.594Z,3.80
2019-03-08T19:53:40.676Z,3.40
2019-03-08T19:56:33.685Z,3.58
2019-03-08T19:59:41.953Z,3.60
2019-03-08T20:02:44.865Z,3.60
2019-03-08T20:05:48.540Z,5.12
2019-03-08T20:08:57.724Z,3.17
2019-03-08T20:11:48.253Z,3.50
2019-03-08T20:14:43.426Z,3.55
2019-03-08T20:17:36.202Z,3.37
2019-03-08T20:20:27.326Z,3.60
2019-03-08T20:23:17.644Z,4.42
2019-03-08T20:26:09.416Z,5.08
2019-03-08T20:29:08.626Z,3.50
2019-03-08T20:31:58.289Z,4.00
2019-03-08T20:34:50.949Z,4.20
2019-03-08T20:37:40.949Z,4.25
2019-03-08T20:40:37.287Z,3.75
2019-03-08T20:43:33.014Z,4.03
2019-03-08T20:46:11.130Z,3.50
2019-03-08T20:48:42.181Z,3.70
2019-03-08T20:51:14.219Z,3.80
2019-03-08T20:53:53.779Z,4.20
2019-03-08T20:56:25.238Z,3.45
2019-03-08T20:59:00.117Z,4.12
2019-03-08T21:01:32.031Z,3.60
2019-03-08T21:04:07.836Z,3.40
2019-03-08T21:06:39.843Z,4.85
2019-03-08T21:09:13.770Z,3.75
2019-03-08T21:11:44.537Z,3.80
2019-03-08T21:14:15.309Z,3.95
2019-03-08T21:16:49.228Z,3.80
2019-03-08T21:19:20.147Z,3.50
2019-03-08T21:21:53.519Z,3.45
2019-03-08T21:24:24.503Z,3.25
2019-03-08T21:26:55.220Z,3.70
2019-03-08T21:29:26.626Z,3.35
2019-03-08T21:32:00.030Z,4.20
2019-03-08T21:34:30.674Z,4.70
2019-03-08T21:37:06.588Z,4.40
2019-03-08T21:39:43.103Z,5.50
2019-03-08T21:42:13.998Z,3.80
2019-03-08T21:44:45.222Z,3.50
2019-03-08T21:47:16.392Z,4.12
2019-03-08T21:49:47.687Z,3.75
2019-03-08T21:52:18.886Z,3.62
2019-03-08T21:54:50.113Z,3.75
2019-03-08T21:57:20.901Z,3.80
2019-03-08T21:59:52.009Z,3.85
2019-03-08T22:02:22.963Z,3.62
2019-03-08T22:04:57.379Z,4.10
2019-03-08T22:07:27.951Z,4.15
2019-03-08T22:10:07.013Z,3.85
2019-03-08T22:12:37.870Z,3.75
2019-03-08T22:15:08.816Z,3.90
2019-03-08T22:17:40.194Z,3.93
2019-03-08T22:20:11.433Z,3.90
2019-03-08T22:22:42.355Z,4.70
2019-03-08T22:25:15.226Z,3.80
2019-03-08T22:27:45.875Z,3.90
2019-03-08T22:30:17.373Z,3.98
2019-03-08T22:32:48.338Z,3.70
2019-03-08T22:35:20.988Z,3.90
2019-03-08T22:37:51.954Z,3.67
2019-03-08T22:40:22.566Z,3.70
2019-03-08T22:42:53.130Z,4.27
2019-03-08T22:45:23.732Z,4.22
2019-03-08T22:47:54.651Z,4.20
2019-03-08T22:50:25.329Z,3.40
2019-03-08T22:52:59.217Z,3.40
2019-03-08T22:55:30.220Z,3.90
2019-03-08T22:58:03.974Z,3.70
2019-03-08T23:01:03.798Z,3.65
2019-03-08T23:03:35.123Z,3.92
2019-03-08T23:06:09.257Z,4.60
2019-03-08T23:08:40.122Z,4.23
2019-03-08T23:11:11.001Z,4.45
2019-03-08T23:13:44.601Z,4.28
2019-03-08T23:16:15.578Z,4.30
2019-03-08T23:18:46.732Z,6.37
2019-03-08T23:21:18.029Z,4.00
2019-03-08T23:23:48.551Z,4.10
2019-03-08T23:26:19.121Z,3.90
2019-03-08T23:29:01.453Z,3.77
2019-03-08T23:31:51.232Z,4.15
2019-03-08T23:34:24.431Z,4.37
2019-03-08T23:36:55.087Z,4.33
2019-03-08T23:39:25.659Z,4.25
2019-03-08T23:41:57.146Z,3.90
2019-03-08T23:44:28.051Z,4.10
2019-03-08T23:46:59.198Z,4.17
2019-03-08T23:49:29.783Z,4.27
2019-03-08T23:52:00.435Z,4.42
2019-03-08T23:54:31.310Z,4.47
2019-03-08T23:57:01.977Z,4.20
2019-03-08T23:59:32.611Z,4.37
